• Join FlightAware (Why Join?)
  • Login
  • US Flag 
07:38AM EDT


 

Airport Tracker/Info


-or-


 

Live Flight TrackerFlight Track Log ✈ N675MC ✈ 13-Sep-2013 ✈ KORD - KATL

Flight Track Log - Related Links

Times and Time Zones

All times are in EDT time to prevent confusion due to time zone crossing. See the N675MC flight status page for this flight to view local times or setup timezone preferences in your user account.

Time Position Orientation Groundspeed Altitude Reporting Facility
EDT Latitude Longitude Course Direction KTS MPH feet Rate Location/Type
04:38PM 41.9833 -87.8667 143° Southeast 172 198 1,500  Level Chicago TRACON
04:39PM 41.9333 -87.8167 143° Southeast 238 274 3,500 1,800 Climbing Chicago TRACON
04:40PM 41.9000 -87.7667 132° Southeast 258 297 5,000 1,680 Climbing Chicago TRACON
04:41PM 41.8167 -87.7833 188° South 287 330 6,800 1,980 Climbing Chicago TRACON
04:42PM 41.7500 -87.8500 217° Southwest 297 342 9,000 1,800 Climbing Chicago TRACON
04:43PM 41.6325 -87.8361 175° South 315 362 11,300 1,200 Climbing Chicago Center
04:44PM 41.5386 -87.8244 175° South 335 386 12,100 600 Climbing Chicago Center
04:45PM 41.4292 -87.7992 170° South 390 449 12,600 1,200 Climbing Chicago Center
04:46PM 41.3131 -87.7669 168° South 419 482 14,700 1,740 Climbing Chicago Center
04:47PM 41.1975 -87.7317 167° South 422 486 16,200 1,680 Climbing Chicago Center
04:48PM 41.0558 -87.6869 167° South 435 501 18,200 1,620 Climbing Chicago Center
04:49PM 40.9344 -87.6464 166° South 445 512 19,600 1,380 Climbing Chicago Center
04:50PM 40.8111 -87.6036 165° South 454 522 21,100 1,320 Climbing Chicago Center
04:51PM 40.6861 -87.5603 165° South 463 533 22,400 1,320 Climbing Chicago Center
04:52PM 40.5594 -87.5158 165° South 470 541 23,900 1,200 Climbing Chicago Center
04:53PM 40.4303 -87.4700 165° South 478 550 25,000 1,080 Climbing Chicago Center
04:54PM 40.2717 -87.4194 166° South 493 567 26,200 1,320 Climbing Chicago Center
04:55PM 40.1411 -87.3717 164° South 493 567 27,800 1,320 Climbing Chicago Center
04:56PM 40.0644 -87.3450 165° South 483 556 28,400 1,080 Climbing Indianapolis Center
04:57PM 39.9356 -87.3003 165° South 483 556 29,600 960 Climbing Indianapolis Center
04:58PM 39.8067 -87.2567 165° South 482 555 30,500 840 Climbing Indianapolis Center
04:59PM 39.6786 -87.2117 165° South 480 552 31,400 900 Climbing Indianapolis Center
05:00PM 39.5264 -87.1594 165° South 476 548 32,400 840 Climbing Indianapolis Center
05:01PM 39.4075 -87.0947 157° South 470 541 33,200 660 Climbing Indianapolis Center
05:02PM 39.2889 -87.0244 155° Southeast 471 542 33,800 540 Climbing Indianapolis Center
05:03PM 39.1717 -86.9517 154° Southeast 471 542 34,400 420 Climbing Indianapolis Center
05:04PM 39.0572 -86.8786 154° Southeast 470 541 34,700 240 Climbing Indianapolis Center
05:05PM 38.9131 -86.7939 155° Southeast 470 541 35,000 120 Climbing Indianapolis Center
05:06PM 38.7872 -86.7297 158° South 480 552 35,000  Level Indianapolis Center
05:07PM 38.6586 -86.6694 160° South 486 559 35,000  Level Indianapolis Center
05:08PM 38.5275 -86.6192 163° South 486 559 35,000  Level Indianapolis Center
05:10PM 38.3947 -86.5803 167° South 482 555 35,000  Level Indianapolis Center
05:11PM 38.2633 -86.5436 168° South 478 550 35,000  Level Indianapolis Center
05:12PM 38.1328 -86.5086 168° South 474 545 35,000  Level Indianapolis Center
05:13PM 37.9994 -86.4889 173° South 475 547 35,000  Level Indianapolis Center
05:14PM 37.8675 -86.4811 177° South 472 543 35,000  Level Indianapolis Center
05:15PM 37.7236 -86.4867 182° South 469 540 35,000  Level Indianapolis Center
05:16PM 37.5911 -86.4889 181° South 471 542 35,000  Level Indianapolis Center
05:17PM 37.4589 -86.4931 181° South 470 541 35,000  Level Indianapolis Center
05:18PM 37.3058 -86.4931 180° South 468 539 35,000  Level Indianapolis Center
05:19PM 37.1725 -86.4836 177° South 474 545 35,000  Level Indianapolis Center
05:20PM 37.0836 -86.4772 177° South 475 547 35,000  Level Memphis Center
05:21PM 36.9536 -86.4500 171° South 475 547 35,000 -120 Level Memphis Center
05:22PM 36.8236 -86.4250 171° South 475 547 34,800 -540 Descending Memphis Center
05:23PM 36.6881 -86.4189 178° South 486 559 34,000 -900 Descending Memphis Center
05:24PM 36.5400 -86.4183 180° South 486 559 33,100 -540 Descending Memphis Center
05:25PM 36.4047 -86.4275 183° South 497 572 33,000 -60 Descending Memphis Center
05:26PM 36.2883 -86.5053 208° Southwest 468 539 33,000  Level Memphis Center
05:27PM 36.1631 -86.5600 199° South 480 552 33,000  Level Memphis Center
05:28PM 36.0347 -86.5247 167° South 466 536 33,000  Level Memphis Center
05:29PM 35.9300 -86.4478 149° Southeast 459 528 33,000  Level Memphis Center
05:32PM 35.5814 -86.1453 145° Southeast 491 565 33,000  Level Atlanta Center
05:33PM 35.4639 -86.0658 151° Southeast 484 557 33,000  Level Atlanta Center
05:34PM 35.3283 -86.0522 175° South 469 540 33,000 -300 Level Atlanta Center
05:35PM 35.2094 -86.0519 180° South 474 545 32,500 -1,020 Descending Atlanta Center
05:36PM 35.0617 -86.0358 175° South 480 552 31,000 -1,320 Descending Atlanta Center
05:37PM 34.9483 -85.9392 145° Southeast 479 551 29,900 -1,080 Descending Atlanta Center
05:38PM 34.8561 -85.8233 134° Southeast 467 537 28,900 -1,140 Descending Atlanta Center
05:39PM 34.7575 -85.7200 139° Southeast 472 543 27,700 -1,020 Descending Atlanta Center
05:40PM 34.6628 -85.6172 138° Southeast 462 532 26,900 -840 Descending Atlanta Center
05:41PM 34.5700 -85.5219 140° Southeast 449 517 26,100 -900 Descending Atlanta Center
05:42PM 34.4731 -85.4272 141° Southeast 449 517 25,200 -1,140 Descending Atlanta Center
05:43PM 34.3992 -85.3203 130° Southeast 431 496 23,900 -1,560 Descending Atlanta Center
05:44PM 34.3311 -85.2361 134° Southeast 405 466 22,100 -3,060 Descending Atlanta Center
05:45PM 34.2378 -85.1644 148° Southeast 394 453 17,800 -3,780 Descending Atlanta Center
05:46PM 34.1444 -85.1156 157° South 381 438 14,600 -1,920 Descending Atlanta Center
05:47PM 34.0722 -85.0194 132° Southeast 369 425 14,000 -780 Descending Atlanta Center
05:48PM 34.0061 -84.9058 125° Southeast 396 456 13,100 -780 Descending Atlanta Center
05:49PM 33.9169 -84.8147 140° Southeast 406 467 12,500 -540 Descending Atlanta Center
05:50PM 33.8425 -84.7217 134° Southeast 401 461 12,100 -300 Descending Atlanta Center
05:51PM 33.7864 -84.6411 130° Southeast 342 394 11,900 -120 Descending Atlanta Center
05:52PM 33.7367 -84.5708 130° Southeast 287 330 11,900 -960 Level Atlanta Center
05:53PM 33.7333 -84.4667 92° East 275 316 9,900 -1,620 Descending Atlanta TRACON
05:54PM 33.7333 -84.3833 90° East 269 310 8,700 -1,320 Descending Atlanta TRACON
05:55PM 33.7333 -84.2833 90° East 252 290 7,300 -1,260 Descending Atlanta TRACON
05:56PM 33.7500 -84.2167 73° East 245 282 6,200 -1,260 Descending Atlanta TRACON
05:57PM 33.7000 -84.1667 140° Southeast 250 288 5,000 -900 Descending Atlanta TRACON
05:58PM 33.6667 -84.2000 220° Southwest 224 258 4,400 -840 Descending Atlanta TRACON
05:59PM 33.6500 -84.2667 253° West 189 217 3,400 -1,080 Descending Atlanta TRACON
06:00PM 33.6500 -84.3333 270° West 186 214 2,300 -1,020 Descending Atlanta TRACON
06:01PM 33.6500 -84.3667 270° West 148 170 1,500 -900 Descending Atlanta TRACON
06:03PM 33.6333 -84.4167 North  Level FlightAware Approximate
06:10PM 33.6367 -84.4279 North  Level Estimated
06:11PM 33.6367 -84.4279 North  Level Estimated
06:12PM 33.6367 -84.4279 North  Level Estimated
06:13PM 33.6367 -84.4279 North  Level Estimated
06:14PM 33.6367 -84.4279 North  Level Estimated